Time;durP1;ratioP1;P1;durP2;ratioP2;P2;SDS_P1;SDS_P2;PMS_P1;PMS_P2;Temp;Humidity;BMP_temperature;BMP_pressure;BME280_temperature;BME280_humidity;BME280_pressure;Samples;Min_cycle;Max_cycle;Signal;HPM_P1;HPM_P2
2023/08/05 00:02:25;;;;;;;0.40;0.40;;;13.60;99.90;;;;;;5093800;28;20127;-74
2023/08/05 00:04:51;;;;;;;0.40;0.40;;;13.60;99.90;;;;;;5092686;28;20078;-74
2023/08/05 00:07:16;;;;;;;0.43;0.43;;;13.50;99.90;;;;;;5093637;28;20453;-74
2023/08/05 00:09:42;;;;;;;0.50;0.50;;;13.60;99.90;;;;;;5094353;28;20119;-75
2023/08/05 00:12:08;;;;;;;0.40;0.40;;;13.50;99.90;;;;;;5093665;28;20039;-73
2023/08/05 00:14:34;;;;;;;0.65;0.65;;;13.50;99.90;;;;;;5092577;28;20040;-73
2023/08/05 00:17:00;;;;;;;1.05;0.60;;;13.60;99.90;;;;;;5093641;28;20550;-72
2023/08/05 00:19:26;;;;;;;0.30;0.30;;;13.60;99.90;;;;;;5093412;28;20131;-71
2023/08/05 00:21:51;;;;;;;0.40;0.40;;;13.60;99.90;;;;;;5093734;28;20487;-72
2023/08/05 00:24:17;;;;;;;0.40;0.40;;;13.70;99.90;;;;;;5093921;28;20380;-74
2023/08/05 00:26:42;;;;;;;0.35;0.35;;;13.70;99.90;;;;;;5093625;28;20044;-74
2023/08/05 00:29:09;;;;;;;0.40;0.40;;;13.70;99.90;;;;;;5093658;28;20047;-72
2023/08/05 00:31:35;;;;;;;0.40;0.40;;;13.80;99.90;;;;;;5093679;28;20380;-75
2023/08/05 00:34:00;;;;;;;0.40;0.40;;;13.80;99.90;;;;;;5093267;28;20051;-75
2023/08/05 00:36:26;;;;;;;0.40;0.40;;;13.80;99.90;;;;;;5093572;28;20040;-74
2023/08/05 00:38:52;;;;;;;0.60;0.60;;;13.80;99.90;;;;;;5093481;28;20040;-75
2023/08/05 00:41:17;;;;;;;0.50;0.50;;;13.80;99.90;;;;;;5093944;28;20036;-73
2023/08/05 00:43:43;;;;;;;0.47;0.47;;;13.80;99.90;;;;;;5093463;28;20077;-76
2023/08/05 00:46:10;;;;;;;0.40;0.40;;;13.90;99.90;;;;;;5093433;28;20036;-74
2023/08/05 00:48:36;;;;;;;0.30;0.30;;;13.90;99.90;;;;;;5093295;28;20464;-74
2023/08/05 00:51:03;;;;;;;0.50;0.50;;;13.90;99.90;;;;;;5093385;28;20488;-74
2023/08/05 00:53:30;;;;;;;0.40;0.40;;;13.90;99.90;;;;;;5093322;28;20131;-73
2023/08/05 00:55:57;;;;;;;0.40;0.40;;;13.90;99.90;;;;;;5093288;28;20047;-75
2023/08/05 00:58:22;;;;;;;0.40;0.40;;;14.00;99.90;;;;;;5093821;28;20032;-73
2023/08/05 01:00:49;;;;;;;0.30;0.30;;;14.00;99.90;;;;;;5093007;28;20042;-73
2023/08/05 01:03:15;;;;;;;0.30;0.30;;;14.00;99.90;;;;;;5093582;28;20043;-75
2023/08/05 01:05:43;;;;;;;0.40;0.40;;;14.10;99.90;;;;;;5093588;28;20369;-74
2023/08/05 01:08:11;;;;;;;0.30;0.30;;;14.00;99.90;;;;;;5095054;28;20044;-73
2023/08/05 01:10:37;;;;;;;0.40;0.40;;;14.00;99.90;;;;;;5096970;28;20071;-74
2023/08/05 01:13:03;;;;;;;0.40;0.40;;;14.00;99.90;;;;;;5097379;28;20052;-75
2023/08/05 01:15:29;;;;;;;0.30;0.30;;;14.10;99.90;;;;;;5096777;28;20456;-75
2023/08/05 01:17:56;;;;;;;0.30;0.30;;;14.10;99.90;;;;;;5096819;28;20039;-72
2023/08/05 01:20:27;;;;;;;0.30;0.30;;;14.10;99.90;;;;;;5096969;28;20095;-73
2023/08/05 01:22:54;;;;;;;0.43;0.43;;;14.10;99.90;;;;;;5096750;28;20464;-73
2023/08/05 01:25:30;;;;;;;0.68;0.55;;;14.00;99.90;;;;;;5096699;28;20044;-74
2023/08/05 01:27:59;;;;;;;0.30;0.30;;;14.00;99.90;;;;;;5097038;28;20127;-72
2023/08/05 01:30:25;;;;;;;0.45;0.45;;;13.90;99.90;;;;;;5096430;28;20126;-73
2023/08/05 01:32:55;;;;;;;0.30;0.30;;;13.90;99.90;;;;;;5096546;28;20046;-72
2023/08/05 01:35:21;;;;;;;0.30;0.30;;;13.90;99.90;;;;;;5096455;28;20035;-72
2023/08/05 01:37:47;;;;;;;0.40;0.40;;;13.90;99.90;;;;;;5096433;28;20036;-72
2023/08/05 01:40:13;;;;;;;0.30;0.30;;;13.80;99.90;;;;;;5096367;28;20048;-74
2023/08/05 01:42:39;;;;;;;0.30;0.30;;;13.80;99.90;;;;;;5096379;28;20040;-73
2023/08/05 01:45:05;;;;;;;0.60;0.60;;;13.70;99.90;;;;;;5096591;28;20062;-71
2023/08/05 01:47:31;;;;;;;0.38;0.38;;;13.70;99.90;;;;;;5096305;28;20032;-75
2023/08/05 01:49:57;;;;;;;0.45;0.45;;;13.70;99.90;;;;;;5096207;28;20040;-75
2023/08/05 01:52:22;;;;;;;0.50;0.50;;;13.60;99.90;;;;;;5096156;28;20039;-72
2023/08/05 01:54:48;;;;;;;0.30;0.30;;;13.60;99.90;;;;;;5096103;28;20051;-74
2023/08/05 01:57:13;;;;;;;0.40;0.40;;;13.50;99.90;;;;;;5096693;28;20043;-75
2023/08/05 01:59:39;;;;;;;0.40;0.40;;;13.50;99.90;;;;;;5096138;28;20482;-73
2023/08/05 02:02:05;;;;;;;0.30;0.30;;;13.50;99.90;;;;;;5096254;28;20040;-75
2023/08/05 02:04:31;;;;;;;0.40;0.40;;;13.50;99.90;;;;;;5095934;28;20041;-74
2023/08/05 02:06:56;;;;;;;0.30;0.30;;;13.50;99.90;;;;;;5095913;28;20039;-74
2023/08/05 02:09:22;;;;;;;0.30;0.30;;;13.50;99.90;;;;;;5096279;28;20170;-73
2023/08/05 02:11:48;;;;;;;0.40;0.40;;;13.50;99.90;;;;;;5095665;28;20122;-73
2023/08/05 02:14:13;;;;;;;0.30;0.30;;;13.50;99.90;;;;;;5095759;28;20040;-73
2023/08/05 02:16:39;;;;;;;0.50;0.50;;;13.40;99.90;;;;;;5095767;28;20043;-74
2023/08/05 02:19:04;;;;;;;0.35;0.35;;;13.30;99.90;;;;;;5094619;28;20556;-72
2023/08/05 02:21:30;;;;;;;0.40;0.40;;;13.30;99.90;;;;;;5095543;28;20411;-73
2023/08/05 02:23:56;;;;;;;0.30;0.30;;;13.20;99.90;;;;;;5095220;28;20479;-73
2023/08/05 02:26:21;;;;;;;0.30;0.30;;;13.20;99.90;;;;;;5095907;28;20051;-71
2023/08/05 02:28:47;;;;;;;0.40;0.40;;;13.20;99.90;;;;;;5095727;28;20122;-73
2023/08/05 02:31:14;;;;;;;0.40;0.40;;;13.10;99.90;;;;;;5095694;28;20093;-75
2023/08/05 02:33:40;;;;;;;;;;;13.10;99.90;;;;;;5095755;28;20040;-73
2023/08/05 02:36:05;;;;;;;0.40;0.40;;;13.10;99.90;;;;;;5095336;28;20332;-74
2023/08/05 02:38:31;;;;;;;0.40;0.40;;;13.10;99.90;;;;;;5095206;28;20036;-73
2023/08/05 02:40:57;;;;;;;0.40;0.40;;;13.00;99.90;;;;;;5095123;28;20093;-72
2023/08/05 02:43:23;;;;;;;0.40;0.40;;;13.00;99.90;;;;;;5094866;28;20542;-72
2023/08/05 02:45:56;;;;;;;0.40;0.40;;;13.00;99.90;;;;;;5095159;28;20040;-73
2023/08/05 02:48:23;;;;;;;0.32;0.32;;;13.00;99.90;;;;;;5095413;28;20051;-75
2023/08/05 02:50:49;;;;;;;;;;;13.00;99.90;;;;;;5095448;28;20032;-72
2023/08/05 02:53:15;;;;;;;0.50;0.50;;;12.90;99.90;;;;;;5094982;28;19923;-74
2023/08/05 02:55:40;;;;;;;0.73;0.73;;;12.90;99.90;;;;;;5094743;28;20036;-73
2023/08/05 02:58:06;;;;;;;0.40;0.40;;;12.90;99.90;;;;;;5095228;28;20036;-75
2023/08/05 03:00:32;;;;;;;0.50;0.50;;;12.80;99.90;;;;;;5094782;28;20043;-72
2023/08/05 03:02:57;;;;;;;0.40;0.40;;;12.80;99.90;;;;;;5093557;28;20028;-74
2023/08/05 03:05:23;;;;;;;0.40;0.40;;;12.90;99.90;;;;;;5093556;28;20040;-75
2023/08/05 03:07:49;;;;;;;0.95;0.70;;;12.70;99.90;;;;;;5094716;28;20474;-71
2023/08/05 03:10:14;;;;;;;0.50;0.50;;;12.70;99.90;;;;;;5094619;28;20087;-72
2023/08/05 03:12:40;;;;;;;0.30;0.30;;;12.60;99.90;;;;;;5094686;28;20079;-72
2023/08/05 03:15:06;;;;;;;0.50;0.50;;;12.60;99.90;;;;;;5094414;28;20493;-74
2023/08/05 03:17:32;;;;;;;0.40;0.40;;;12.60;99.90;;;;;;5094513;28;20042;-75
2023/08/05 03:19:58;;;;;;;0.40;0.40;;;12.60;99.90;;;;;;5094605;28;20052;-75
2023/08/05 03:22:24;;;;;;;0.40;0.40;;;12.50;99.90;;;;;;5094359;28;20043;-72
2023/08/05 03:24:50;;;;;;;0.57;0.50;;;12.50;99.90;;;;;;5094438;28;20349;-73
2023/08/05 03:27:15;;;;;;;1.17;0.93;;;12.50;99.90;;;;;;5094362;28;20040;-72
2023/08/05 03:29:41;;;;;;;0.30;0.30;;;12.50;99.90;;;;;;5094603;28;20051;-71
2023/08/05 03:32:06;;;;;;;0.40;0.40;;;12.40;99.90;;;;;;5094059;28;20519;-72
2023/08/05 03:34:32;;;;;;;0.40;0.40;;;12.50;99.90;;;;;;5094275;28;20040;-73
2023/08/05 03:36:58;;;;;;;0.40;0.40;;;12.40;99.90;;;;;;5094456;28;20131;-73
2023/08/05 03:39:23;;;;;;;0.40;0.40;;;12.40;99.90;;;;;;5094203;28;20043;-72
2023/08/05 03:41:49;;;;;;;0.50;0.50;;;12.40;99.90;;;;;;5094462;28;20036;-74
2023/08/05 03:44:15;;;;;;;0.93;0.87;;;12.40;99.90;;;;;;5093976;28;20450;-72
2023/08/05 03:46:40;;;;;;;0.40;0.40;;;12.40;99.90;;;;;;5094379;28;20040;-73
2023/08/05 03:49:06;;;;;;;0.75;0.75;;;12.40;99.90;;;;;;5094271;28;20036;-74
2023/08/05 03:51:32;;;;;;;0.40;0.40;;;12.40;99.90;;;;;;5094033;28;20040;-73
2023/08/05 03:53:58;;;;;;;0.40;0.40;;;12.40;99.90;;;;;;5094174;28;20047;-73
2023/08/05 03:56:26;;;;;;;0.40;0.40;;;12.40;99.90;;;;;;5093864;28;20040;-72
2023/08/05 03:58:56;;;;;;;0.40;0.40;;;13.00;99.90;;;;;;5093957;28;20040;-73
2023/08/05 04:01:22;;;;;;;0.40;0.40;;;12.50;99.90;;;;;;5093762;28;20566;-73
2023/08/05 04:03:51;;;;;;;0.50;0.50;;;12.50;99.90;;;;;;5093867;28;20105;-75
2023/08/05 04:06:20;;;;;;;0.40;0.40;;;12.50;99.90;;;;;;5093844;28;20040;-71
2023/08/05 04:08:48;;;;;;;0.50;0.50;;;12.60;99.90;;;;;;5093773;28;20039;-72
2023/08/05 04:11:14;;;;;;;0.40;0.40;;;12.60;99.90;;;;;;5094284;28;20372;-74
2023/08/05 04:13:40;;;;;;;0.50;0.50;;;12.60;99.90;;;;;;5093734;28;20461;-74
2023/08/05 04:16:08;;;;;;;0.40;0.40;;;12.60;99.90;;;;;;5093492;28;20051;-74
2023/08/05 04:18:36;;;;;;;0.40;0.40;;;12.60;99.90;;;;;;5093479;28;20092;-73
2023/08/05 04:21:04;;;;;;;0.40;0.40;;;12.60;99.90;;;;;;5093627;28;20468;-74
2023/08/05 04:23:34;;;;;;;0.40;0.40;;;12.70;99.90;;;;;;5093644;28;20035;-75
2023/08/05 04:26:01;;;;;;;0.40;0.40;;;12.60;99.90;;;;;;5093767;28;20380;-71
2023/08/05 04:28:27;;;;;;;0.40;0.40;;;12.70;99.90;;;;;;5093719;28;20036;-73
2023/08/05 04:30:53;;;;;;;0.40;0.40;;;12.70;99.90;;;;;;5093590;28;20379;-74
2023/08/05 04:33:19;;;;;;;0.40;0.40;;;12.70;99.90;;;;;;5093570;28;20479;-72
2023/08/05 04:35:47;;;;;;;0.30;0.30;;;12.80;99.90;;;;;;5093605;28;20452;-73
2023/08/05 04:38:12;;;;;;;0.52;0.52;;;12.80;99.90;;;;;;5093542;28;20274;-71
2023/08/05 04:40:38;;;;;;;0.53;0.50;;;13.00;99.90;;;;;;5093330;28;20551;-73
2023/08/05 04:43:03;;;;;;;0.50;0.50;;;12.80;99.90;;;;;;5095100;28;20040;-72
2023/08/05 04:45:29;;;;;;;0.60;0.60;;;12.70;99.90;;;;;;5097984;28;20046;-75
2023/08/05 04:47:55;;;;;;;0.40;0.40;;;12.70;99.90;;;;;;5097146;28;20033;-76
2023/08/05 04:50:20;;;;;;;0.40;0.40;;;12.70;99.90;;;;;;5097333;28;20036;-78
2023/08/05 04:52:46;;;;;;;0.40;0.40;;;12.70;99.90;;;;;;5097744;28;20494;-71
2023/08/05 04:55:15;;;;;;;0.50;0.50;;;12.80;99.90;;;;;;5097236;28;20047;-75
2023/08/05 04:57:40;;;;;;;0.40;0.40;;;12.80;99.90;;;;;;5097208;28;20123;-70
2023/08/05 05:00:07;;;;;;;0.43;0.43;;;12.80;99.90;;;;;;5097421;28;20068;-74
2023/08/05 05:02:32;;;;;;;0.40;0.40;;;12.90;99.90;;;;;;5097077;28;20043;-71
2023/08/05 05:04:58;;;;;;;1.65;0.50;;;13.00;99.90;;;;;;5097081;28;20392;-73
2023/08/05 05:07:24;;;;;;;0.30;0.30;;;13.00;99.90;;;;;;5097115;28;20040;-72
2023/08/05 05:09:49;;;;;;;0.47;0.47;;;13.10;99.90;;;;;;5097021;28;20040;-71
2023/08/05 05:12:15;;;;;;;0.40;0.40;;;13.10;99.90;;;;;;5097051;28;20051;-73
2023/08/05 05:14:44;;;;;;;0.40;0.40;;;13.20;99.90;;;;;;5096793;28;20032;-72
2023/08/05 05:17:10;;;;;;;0.40;0.40;;;13.30;99.90;;;;;;5096937;28;20082;-74
2023/08/05 05:19:35;;;;;;;0.57;0.57;;;13.40;99.90;;;;;;5096778;28;20040;-73
2023/08/05 05:22:01;;;;;;;0.35;0.35;;;13.40;99.90;;;;;;5096709;28;20067;-70
2023/08/05 05:24:29;;;;;;;0.40;0.40;;;13.50;99.90;;;;;;5096735;28;20040;-72
2023/08/05 05:26:57;;;;;;;0.40;0.40;;;13.60;99.90;;;;;;5096683;28;20044;-72
2023/08/05 05:29:23;;;;;;;0.50;0.43;;;13.70;99.90;;;;;;5096835;28;20089;-72
2023/08/05 05:31:48;;;;;;;0.40;0.40;;;13.80;99.90;;;;;;5096631;28;20464;-70
2023/08/05 05:34:14;;;;;;;0.40;0.40;;;13.80;99.90;;;;;;5097062;28;20052;-73
2023/08/05 05:36:39;;;;;;;0.52;0.52;;;13.90;99.90;;;;;;5096946;28;20524;-72
2023/08/05 05:39:05;;;;;;;0.40;0.40;;;14.00;99.90;;;;;;5096477;28;20036;-71
2023/08/05 05:41:31;;;;;;;0.37;0.37;;;14.20;99.90;;;;;;5096311;28;20071;-74
2023/08/05 05:43:58;;;;;;;0.40;0.40;;;14.30;99.90;;;;;;5096378;28;20118;-75
2023/08/05 05:46:24;;;;;;;0.50;0.50;;;14.40;99.90;;;;;;5096285;28;20080;-79
2023/08/05 05:48:49;;;;;;;0.47;0.47;;;14.50;99.90;;;;;;5096627;28;20040;-77
2023/08/05 05:51:15;;;;;;;0.43;0.40;;;14.50;99.90;;;;;;5096311;28;20465;-78
2023/08/05 05:53:41;;;;;;;0.50;0.50;;;14.60;99.90;;;;;;5095853;28;20047;-77
2023/08/05 05:56:06;;;;;;;0.40;0.40;;;14.70;99.90;;;;;;5096169;28;20047;-77
2023/08/05 05:58:34;;;;;;;0.40;0.40;;;14.70;99.90;;;;;;5095971;28;20048;-75
2023/08/05 06:01:01;;;;;;;0.40;0.40;;;14.70;99.90;;;;;;5096080;28;20036;-75
2023/08/05 06:03:27;;;;;;;0.40;0.40;;;14.70;99.90;;;;;;5095921;28;20051;-74
2023/08/05 06:05:53;;;;;;;0.40;0.40;;;14.70;99.90;;;;;;5095963;28;20114;-74
2023/08/05 06:08:18;;;;;;;0.40;0.40;;;14.70;99.90;;;;;;5096273;28;20140;-74
2023/08/05 06:10:44;;;;;;;0.57;0.50;;;14.70;99.90;;;;;;5095893;28;20076;-74
2023/08/05 06:13:10;;;;;;;0.47;0.47;;;14.80;99.90;;;;;;5095766;28;20097;-79
2023/08/05 06:15:40;;;;;;;0.40;0.40;;;14.90;99.90;;;;;;5095690;28;20112;-78
2023/08/05 06:18:07;;;;;;;0.30;0.30;;;15.10;99.90;;;;;;5095599;28;20107;-75
2023/08/05 06:20:33;;;;;;;0.30;0.30;;;15.20;99.90;;;;;;5096377;28;20177;-75
2023/08/05 06:22:58;;;;;;;0.37;0.37;;;15.30;99.90;;;;;;5095293;28;20119;-76
2023/08/05 06:25:24;;;;;;;0.50;0.50;;;15.50;99.90;;;;;;5095547;28;20040;-76
2023/08/05 06:27:49;;;;;;;0.40;0.40;;;15.60;99.90;;;;;;5095761;28;20040;-77
2023/08/05 06:30:15;;;;;;;0.52;0.52;;;15.70;99.90;;;;;;5095549;28;20083;-79
2023/08/05 06:32:40;;;;;;;0.87;0.60;;;15.80;99.90;;;;;;5095104;28;20073;-78
2023/08/05 06:35:06;;;;;;;0.38;0.38;;;15.90;99.90;;;;;;5095747;28;20036;-78
2023/08/05 06:37:32;;;;;;;1.05;0.70;;;16.00;99.90;;;;;;5095297;28;20380;-77
2023/08/05 06:39:58;;;;;;;0.47;0.47;;;16.00;99.90;;;;;;5095528;28;20078;-80
2023/08/05 06:42:25;;;;;;;0.43;0.43;;;16.00;99.90;;;;;;5095151;28;20035;-80
2023/08/05 06:44:51;;;;;;;0.40;0.40;;;16.10;99.90;;;;;;5095138;28;20452;-75
2023/08/05 06:47:16;;;;;;;0.40;0.40;;;16.20;99.90;;;;;;5095107;28;20079;-78
2023/08/05 06:49:42;;;;;;;0.80;0.80;;;16.20;99.90;;;;;;5095100;28;20040;-76
2023/08/05 06:52:08;;;;;;;0.30;0.30;;;16.30;99.90;;;;;;5095064;28;20036;-77
2023/08/05 06:54:33;;;;;;;0.40;0.40;;;16.60;99.90;;;;;;5094970;28;20464;-75
2023/08/05 06:56:59;;;;;;;0.50;0.50;;;16.50;99.90;;;;;;5094883;28;20032;-77
2023/08/05 06:59:26;;;;;;;0.40;0.40;;;16.50;99.90;;;;;;5094917;28;20123;-77
2023/08/05 07:01:52;;;;;;;0.30;0.30;;;16.60;99.90;;;;;;5094710;28;20101;-79
2023/08/05 07:04:18;;;;;;;0.40;0.40;;;16.70;99.90;;;;;;5094770;28;20054;-77
2023/08/05 07:06:44;;;;;;;0.35;0.35;;;16.80;99.90;;;;;;5094227;28;20278;-76
2023/08/05 07:09:10;;;;;;;0.37;0.37;;;16.80;99.90;;;;;;5094772;28;20472;-78
2023/08/05 07:11:36;;;;;;;0.30;0.30;;;16.80;99.90;;;;;;5094715;28;20028;-79
2023/08/05 07:14:01;;;;;;;0.50;0.50;;;16.80;99.90;;;;;;5094746;28;20050;-75
2023/08/05 07:16:27;;;;;;;0.50;0.50;;;16.80;99.90;;;;;;5094693;28;20076;-79
2023/08/05 07:18:53;;;;;;;1.17;1.07;;;16.80;99.90;;;;;;5094504;28;20373;-77
2023/08/05 07:21:19;;;;;;;0.40;0.40;;;16.80;99.90;;;;;;5094632;28;20040;-75
2023/08/05 07:23:44;;;;;;;0.30;0.30;;;16.80;99.90;;;;;;5094597;28;20042;-76
2023/08/05 07:26:10;;;;;;;0.50;0.50;;;16.80;99.90;;;;;;5094843;28;20118;-76
2023/08/05 07:28:36;;;;;;;0.50;0.50;;;16.80;99.90;;;;;;5094345;28;20486;-76
2023/08/05 07:31:07;;;;;;;0.70;0.60;;;16.90;99.90;;;;;;5094308;28;20067;-77
2023/08/05 07:33:33;;;;;;;0.40;0.40;;;16.90;99.90;;;;;;5094761;28;20048;-79
2023/08/05 07:36:22;;;;;;;0.30;0.30;;;17.00;99.90;;;;;;5094239;28;20074;-74
2023/08/05 07:38:50;;;;;;;0.40;0.40;;;17.10;99.90;;;;;;5094105;28;20375;-78
2023/08/05 07:41:16;;;;;;;0.35;0.35;;;17.20;99.90;;;;;;5093913;28;20463;-76
2023/08/05 07:43:42;;;;;;;0.40;0.40;;;17.30;99.90;;;;;;5094147;28;20079;-76
2023/08/05 07:46:11;;;;;;;;;;;17.40;99.90;;;;;;5094566;28;20052;-76
2023/08/05 07:48:39;;;;;;;0.73;0.45;;;17.50;99.90;;;;;;5094194;28;19959;-81
2023/08/05 07:51:07;;;;;;;0.32;0.32;;;17.60;99.90;;;;;;5092945;28;20108;-76
2023/08/05 07:53:36;;;;;;;0.30;0.30;;;17.70;99.90;;;;;;5093983;28;20048;-70
2023/08/05 07:56:09;;;;;;;0.65;0.65;;;17.80;99.90;;;;;;5093922;28;20090;-71
2023/08/05 07:58:36;;;;;;;0.30;0.30;;;17.90;99.90;;;;;;5093529;28;20036;-73
2023/08/05 08:01:01;;;;;;;0.43;0.43;;;17.90;99.90;;;;;;5093930;28;20128;-71
2023/08/05 08:03:29;;;;;;;0.30;0.30;;;17.90;99.90;;;;;;5093869;28;20115;-72
2023/08/05 08:05:55;;;;;;;0.30;0.30;;;18.00;99.90;;;;;;5093888;28;20384;-71
2023/08/05 08:08:21;;;;;;;0.30;0.30;;;18.10;99.90;;;;;;5093779;28;20028;-70
2023/08/05 08:10:47;;;;;;;0.30;0.30;;;18.10;99.90;;;;;;5093784;28;20040;-70
2023/08/05 08:13:12;;;;;;;0.30;0.30;;;18.20;99.90;;;;;;5093733;28;20047;-71
2023/08/05 08:15:38;;;;;;;0.40;0.40;;;18.30;99.90;;;;;;5093734;28;20341;-71
2023/08/05 08:18:04;;;;;;;0.50;0.50;;;18.40;99.90;;;;;;5095658;28;20044;-72
2023/08/05 08:20:29;;;;;;;0.40;0.40;;;18.40;99.90;;;;;;5098005;28;20067;-71
2023/08/05 08:22:55;;;;;;;0.30;0.30;;;18.50;99.90;;;;;;5097814;28;20036;-71
2023/08/05 08:25:21;;;;;;;0.40;0.40;;;18.60;99.90;;;;;;5097865;28;20055;-72
2023/08/05 08:27:46;;;;;;;0.30;0.30;;;18.80;99.90;;;;;;5097802;28;20047;-71
2023/08/05 08:30:12;;;;;;;0.60;0.40;;;18.90;99.90;;;;;;5097720;28;20042;-73
2023/08/05 08:32:38;;;;;;;0.73;0.50;;;18.90;99.90;;;;;;5097747;28;20079;-72
2023/08/05 08:35:04;;;;;;;0.50;0.40;;;19.00;99.90;;;;;;5098074;28;20274;-73
2023/08/05 08:37:30;;;;;;;0.20;0.20;;;19.20;99.90;;;;;;5097596;28;20032;-72
2023/08/05 08:39:56;;;;;;;0.73;0.70;;;19.30;99.90;;;;;;5097540;28;20483;-71
2023/08/05 08:42:24;;;;;;;0.40;0.30;;;19.40;99.90;;;;;;5097128;28;20090;-69
2023/08/05 08:44:51;;;;;;;0.52;0.52;;;19.50;99.90;;;;;;5097392;28;20081;-69
2023/08/05 08:47:17;;;;;;;0.30;0.30;;;19.50;99.90;;;;;;5097417;28;20040;-69
2023/08/05 08:49:45;;;;;;;0.47;0.47;;;19.60;99.90;;;;;;5097537;28;20036;-69
2023/08/05 08:52:14;;;;;;;0.30;0.30;;;19.60;99.90;;;;;;5097370;28;20047;-69
2023/08/05 08:54:40;;;;;;;0.40;0.40;;;19.60;99.90;;;;;;5096936;28;20044;-69
2023/08/05 08:57:06;;;;;;;0.30;0.30;;;19.50;99.90;;;;;;5097060;28;20043;-69
2023/08/05 08:59:32;;;;;;;0.30;0.30;;;19.40;99.90;;;;;;5097642;28;20382;-69
2023/08/05 09:02:00;;;;;;;0.40;0.40;;;19.40;99.90;;;;;;5097193;28;20117;-69
2023/08/05 09:04:29;;;;;;;0.30;0.30;;;19.40;99.90;;;;;;5097363;28;20127;-69
2023/08/05 09:06:56;;;;;;;0.20;0.20;;;19.50;99.90;;;;;;5097068;28;20094;-69
2023/08/05 09:09:22;;;;;;;0.35;0.35;;;19.70;99.90;;;;;;5096880;28;20052;-70
2023/08/05 09:11:48;;;;;;;0.30;0.30;;;19.70;99.90;;;;;;5097018;28;20047;-69
2023/08/05 09:14:16;;;;;;;0.37;0.37;;;19.70;99.90;;;;;;5096970;28;20075;-69
2023/08/05 09:16:59;;;;;;;0.30;0.30;;;19.70;99.90;;;;;;5096903;28;20044;-69
2023/08/05 09:19:26;;;;;;;0.30;0.30;;;19.70;99.90;;;;;;5096750;28;20047;-70
2023/08/05 09:21:53;;;;;;;0.38;0.38;;;19.80;99.90;;;;;;5096641;28;20047;-70
2023/08/05 09:24:23;;;;;;;0.30;0.30;;;20.00;99.90;;;;;;5096691;28;20043;-69
2023/08/05 09:27:02;;;;;;;0.50;0.50;;;20.00;99.90;;;;;;5097086;28;20044;-69
2023/08/05 09:29:29;;;;;;;7.53;0.50;;;20.10;99.90;;;;;;5095731;28;20043;-71
2023/08/05 09:32:02;;;;;;;0.30;0.30;;;20.00;99.90;;;;;;5096603;28;20082;-71
2023/08/05 09:34:38;;;;;;;0.80;0.55;;;20.10;99.90;;;;;;5094218;28;20044;-77
2023/08/05 09:37:06;;;;;;;0.30;0.30;;;19.90;99.90;;;;;;5095988;28;20047;-72
2023/08/05 09:39:47;;;;;;;0.30;0.30;;;19.90;99.90;;;;;;5096318;28;20051;-72
2023/08/05 09:42:23;;;;;;;0.30;0.30;;;19.90;99.90;;;;;;5094145;28;20089;-72
2023/08/05 09:44:49;;;;;;;0.30;0.30;;;19.90;99.90;;;;;;5095960;28;20425;-72
2023/08/05 09:47:20;;;;;;;0.20;0.20;;;19.90;99.90;;;;;;5095111;28;20032;-75
2023/08/05 09:49:52;;;;;;;0.50;0.50;;;19.90;99.90;;;;;;5096048;28;20040;-74
2023/08/05 09:52:23;;;;;;;0.20;0.20;;;20.00;99.90;;;;;;5095821;28;20040;-73
2023/08/05 09:55:00;;;;;;;0.30;0.30;;;20.10;99.90;;;;;;5096253;28;20043;-72
2023/08/05 09:57:26;;;;;;;0.20;0.20;;;20.00;99.90;;;;;;5096117;28;20048;-74
2023/08/05 09:59:53;;;;;;;0.30;0.30;;;19.90;99.90;;;;;;5095544;28;20051;-74
2023/08/05 10:02:25;;;;;;;0.45;0.45;;;20.00;99.90;;;;;;5096545;28;20302;-73
2023/08/05 10:04:55;;;;;;;0.90;0.80;;;20.00;99.90;;;;;;5096292;28;20082;-73
2023/08/05 10:07:22;;;;;;;0.40;0.40;;;20.20;99.90;;;;;;5096226;28;20048;-73
2023/08/05 10:09:49;;;;;;;0.77;0.40;;;20.10;99.90;;;;;;5095962;28;20028;-71
2023/08/05 10:12:18;;;;;;;0.30;0.30;;;20.20;99.90;;;;;;5095834;28;20040;-72
2023/08/05 10:14:44;;;;;;;0.22;0.22;;;20.10;99.90;;;;;;5095838;28;20051;-71
2023/08/05 10:17:10;;;;;;;0.35;0.35;;;20.10;99.90;;;;;;5095817;28;20040;-71
2023/08/05 10:19:36;;;;;;;0.27;0.27;;;20.10;99.90;;;;;;5095685;28;20087;-72
2023/08/05 10:22:09;;;;;;;0.30;0.30;;;20.10;99.90;;;;;;5095613;28;20418;-71
2023/08/05 10:24:56;;;;;;;0.40;0.40;;;20.20;99.90;;;;;;5095552;28;20055;-71
2023/08/05 10:27:42;;;;;;;0.40;0.40;;;20.40;99.90;;;;;;5095642;28;20058;-71
2023/08/05 10:30:09;;;;;;;2.35;0.60;;;20.60;99.90;;;;;;5095603;28;20047;-72
2023/08/05 10:32:48;;;;;;;0.20;0.20;;;20.70;99.90;;;;;;5095175;28;20043;-72
2023/08/05 10:35:42;;;;;;;0.57;0.52;;;20.70;99.90;;;;;;5095391;28;20066;-72
2023/08/05 10:38:20;;;;;;;0.30;0.30;;;20.70;99.90;;;;;;5095525;28;20044;-72
2023/08/05 10:41:03;;;;;;;0.32;0.32;;;20.60;99.90;;;;;;5094205;28;20109;-72
2023/08/05 10:43:35;;;;;;;0.35;0.35;;;20.60;99.90;;;;;;5095031;28;20110;-71
2023/08/05 10:46:11;;;;;;;0.30;0.30;;;20.50;99.90;;;;;;5095542;28;20048;-72
2023/08/05 10:48:44;;;;;;;0.30;0.30;;;20.50;99.90;;;;;;5095235;28;20135;-71
2023/08/05 10:51:18;;;;;;;0.30;0.30;;;20.50;99.90;;;;;;5095119;28;20379;-70
2023/08/05 10:54:04;;;;;;;0.40;0.38;;;20.50;99.90;;;;;;5094723;28;20119;-71
2023/08/05 10:56:34;;;;;;;1.13;0.30;;;20.60;99.90;;;;;;5095254;28;20044;-72
2023/08/05 10:59:03;;;;;;;0.20;0.20;;;20.60;99.90;;;;;;5095409;28;20050;-74
2023/08/05 11:01:57;;;;;;;1.65;0.50;;;20.70;99.90;;;;;;5094881;28;20367;-71
2023/08/05 11:04:32;;;;;;;0.43;0.43;;;20.80;99.90;;;;;;5094738;28;20040;-71
2023/08/05 11:07:00;;;;;;;1.33;0.57;;;20.80;99.90;;;;;;5095200;28;20102;-71
2023/08/05 11:09:26;;;;;;;0.75;0.43;;;20.70;99.90;;;;;;5094757;28;20028;-71
2023/08/05 11:11:52;;;;;;;0.40;0.40;;;20.60;99.90;;;;;;5095311;28;20058;-74
2023/08/05 11:14:19;;;;;;;0.40;0.40;;;20.70;99.90;;;;;;5094653;28;20036;-70
2023/08/05 11:16:46;;;;;;;0.30;0.30;;;20.90;99.90;;;;;;5094440;28;20048;-72
2023/08/05 11:19:12;;;;;;;0.50;0.30;;;21.10;99.90;;;;;;5094470;28;20048;-72
2023/08/05 11:21:43;;;;;;;0.40;0.40;;;21.30;99.90;;;;;;5094263;28;20075;-72
2023/08/05 11:24:19;;;;;;;1.98;0.57;;;21.40;99.90;;;;;;5094831;28;20416;-71
2023/08/05 11:26:46;;;;;;;0.47;0.47;;;21.60;99.90;;;;;;5094524;28;20039;-71
2023/08/05 11:29:13;;;;;;;0.40;0.40;;;21.40;99.90;;;;;;5094388;28;20048;-71
2023/08/05 11:31:49;;;;;;;0.70;0.70;;;21.30;99.90;;;;;;5094275;28;20047;-71
2023/08/05 11:34:22;;;;;;;0.63;0.63;;;21.10;99.90;;;;;;5094254;28;20044;-71
2023/08/05 11:36:55;;;;;;;0.50;0.50;;;20.90;99.90;;;;;;5094735;28;20040;-71
2023/08/05 11:39:24;;;;;;;0.88;0.88;;;20.90;99.90;;;;;;5094206;28;20040;-72
2023/08/05 11:41:51;;;;;;;0.40;0.40;;;20.90;99.90;;;;;;5094201;28;20372;-70
2023/08/05 11:44:17;;;;;;;0.85;0.73;;;20.90;99.90;;;;;;5094116;28;20042;-73
2023/08/05 11:46:43;;;;;;;0.50;0.50;;;20.90;99.90;;;;;;5093810;28;20469;-71
2023/08/05 11:49:10;;;;;;;0.70;0.50;;;20.90;99.90;;;;;;5094001;28;20123;-73
2023/08/05 11:51:52;;;;;;;0.35;0.35;;;21.00;99.90;;;;;;5093951;28;20111;-73
2023/08/05 11:54:28;;;;;;;0.35;0.35;;;21.10;99.90;;;;;;5094036;28;20035;-72
2023/08/05 11:56:54;;;;;;;0.30;0.30;;;21.20;99.90;;;;;;5093319;28;20039;-72
2023/08/05 11:59:44;;;;;;;0.40;0.40;;;21.20;99.90;;;;;;5093706;28;20361;-73
2023/08/05 12:02:12;;;;;;;0.40;0.30;;;21.20;99.90;;;;;;5094192;28;20063;-73
2023/08/05 12:04:47;;;;;;;0.75;0.50;;;21.20;99.90;;;;;;5093862;28;20038;-73
2023/08/05 12:07:20;;;;;;;0.57;0.57;;;21.10;99.90;;;;;;5093826;28;20040;-73
2023/08/05 12:10:03;;;;;;;0.65;0.65;;;21.00;99.90;;;;;;5093883;28;20047;-73
2023/08/05 12:12:29;;;;;;;0.73;0.60;;;21.10;99.90;;;;;;5093764;28;20476;-73
2023/08/05 12:15:13;;;;;;;0.67;0.40;;;21.20;99.90;;;;;;5093752;28;20047;-72
2023/08/05 12:17:49;;;;;;;0.32;0.30;;;21.20;99.90;;;;;;5093460;28;20039;-72
2023/08/05 12:20:17;;;;;;;0.50;0.50;;;21.20;99.90;;;;;;5094403;28;20054;-73
2023/08/05 12:22:43;;;;;;;0.52;0.50;;;21.20;99.90;;;;;;5093645;28;20033;-72
2023/08/05 12:25:09;;;;;;;0.68;0.68;;;21.20;99.90;;;;;;5093684;28;20076;-72
2023/08/05 12:27:34;;;;;;;0.30;0.30;;;21.20;99.90;;;;;;5093499;28;20071;-73
2023/08/05 12:30:00;;;;;;;1.50;0.77;;;21.20;99.90;;;;;;5093395;28;20051;-73
2023/08/05 12:32:26;;;;;;;0.97;0.80;;;21.20;99.90;;;;;;5093650;28;20048;-72
2023/08/05 12:34:51;;;;;;;0.30;0.30;;;21.30;99.90;;;;;;5093688;28;20040;-73
2023/08/05 12:37:17;;;;;;;0.40;0.40;;;21.40;99.90;;;;;;5093594;28;20047;-74
2023/08/05 12:39:43;;;;;;;0.30;0.30;;;21.60;99.90;;;;;;5093660;28;20075;-73
2023/08/05 12:42:09;;;;;;;0.77;0.63;;;21.50;99.90;;;;;;5093777;28;20036;-72
2023/08/05 12:44:35;;;;;;;0.65;0.50;;;21.60;99.90;;;;;;5093303;28;20403;-73
2023/08/05 12:47:00;;;;;;;0.67;0.50;;;21.50;99.90;;;;;;5093251;28;20047;-71
2023/08/05 12:49:26;;;;;;;0.40;0.40;;;21.60;99.90;;;;;;5093960;28;20044;-72
2023/08/05 12:51:52;;;;;;;0.87;0.50;;;21.50;99.90;;;;;;5093489;28;20048;-73